Time;durP1;ratioP1;P1;durP2;ratioP2;P2;SDS_P1;SDS_P2;PMS_P1;PMS_P2;Temp;Humidity;BMP_temperature;BMP_pressure;BME280_temperature;BME280_humidity;BME280_pressure;Samples;Min_cycle;Max_cycle;Signal;HPM_P1;HPM_P2
2023/08/15 00:00:33;;;;;;;4.95;4.25;;;;;;;22.40;51.30;64321.00;5063483;28;20209;-78
2023/08/15 00:03:00;;;;;;;6.07;4.78;;;;;;;22.44;51.00;64325.69;5064470;28;20224;-79
2023/08/15 00:05:27;;;;;;;5.30;4.60;;;;;;;22.42;51.10;64323.59;5065466;28;20207;-78
2023/08/15 00:07:54;;;;;;;6.35;4.65;;;;;;;22.47;51.03;64323.09;5069461;28;20232;-78
2023/08/15 00:10:22;;;;;;;5.88;4.70;;;;;;;22.35;51.17;64316.28;5064039;28;20224;-79
2023/08/15 00:12:49;;;;;;;5.22;4.82;;;;;;;22.39;51.17;64320.47;5070174;28;20216;-78
2023/08/15 00:15:19;;;;;;;7.63;4.70;;;;;;;22.42;51.25;64320.47;5066917;28;20207;-78
2023/08/15 00:17:46;;;;;;;4.80;4.35;;;;;;;22.39;51.37;64320.47;5066312;28;20196;-79
2023/08/15 00:20:14;;;;;;;4.95;4.55;;;;;;;22.40;51.33;64318.41;5069283;28;20231;-79
2023/08/15 00:22:42;;;;;;;5.25;4.75;;;;;;;22.30;51.14;64315.72;5066869;28;20204;-78
2023/08/15 00:25:10;;;;;;;6.30;4.50;;;;;;;22.28;51.62;64308.44;5069759;28;20204;-77
2023/08/15 00:27:38;;;;;;;5.22;4.10;;;;;;;22.24;51.58;64304.78;5064061;28;20236;-79
2023/08/15 00:30:07;;;;;;;5.03;4.63;;;;;;;22.20;51.61;64300.06;5066327;28;20197;-79
2023/08/15 00:32:35;;;;;;;4.50;3.92;;;;;;;22.24;51.16;64301.66;5068318;28;20449;-80
2023/08/15 00:35:03;;;;;;;5.15;4.57;;;;;;;22.17;51.41;64297.47;5068133;28;20583;-78
2023/08/15 00:37:29;;;;;;;4.90;4.47;;;;;;;22.10;51.90;64289.63;5077331;28;20200;-77
2023/08/15 00:39:57;;;;;;;4.50;4.20;;;;;;;22.00;52.24;64282.31;5089058;28;20221;-79
2023/08/15 00:42:24;;;;;;;7.28;4.07;;;;;;;21.92;53.17;64276.00;5071894;28;20329;-78
2023/08/15 00:44:53;;;;;;;4.30;3.92;;;;;;;21.88;53.36;64266.63;5062315;28;20241;-78
2023/08/15 00:47:20;;;;;;;5.82;4.15;;;;;;;21.83;53.53;64261.41;5066207;28;20552;-79
2023/08/15 00:49:47;;;;;;;3.95;3.70;;;;;;;21.68;53.72;64246.75;5066984;28;20493;-78
2023/08/15 00:52:18;;;;;;;4.30;3.90;;;;;;;21.84;53.04;64259.84;5072417;28;20500;-79
2023/08/15 00:54:51;;;;;;;3.97;3.58;;;;;;;21.80;53.21;64258.78;5072224;28;20236;-79
2023/08/15 00:57:19;;;;;;;4.40;4.00;;;;;;;21.66;53.81;64246.75;5066446;28;20411;-79
2023/08/15 00:59:47;;;;;;;6.45;4.15;;;;;;;21.75;54.40;64254.09;5066570;28;20262;-78
2023/08/15 01:02:17;;;;;;;4.35;3.88;;;;;;;21.76;54.15;64252.53;5080013;28;20268;-79
2023/08/15 01:04:44;;;;;;;4.35;4.00;;;;;;;21.75;54.11;64248.38;5073333;28;20252;-79
2023/08/15 01:07:12;;;;;;;4.55;4.15;;;;;;;21.68;55.26;64246.25;5066610;28;20240;-79
2023/08/15 01:09:39;;;;;;;4.78;4.10;;;;;;;21.64;55.92;64239.47;5067002;28;20224;-79
2023/08/15 01:12:19;;;;;;;4.03;3.72;;;;;;;21.67;55.12;64245.72;5063524;28;20244;-79
2023/08/15 01:14:52;;;;;;;4.47;3.67;;;;;;;21.64;55.05;64239.47;5059830;28;20228;-79
2023/08/15 01:17:30;;;;;;;4.25;3.95;;;;;;;21.65;54.59;64238.44;5066714;28;20474;-78
2023/08/15 01:20:01;;;;;;;4.07;3.78;;;;;;;21.70;54.70;64250.91;5066044;28;20292;-78
2023/08/15 01:22:32;;;;;;;5.00;3.67;;;;;;;21.75;54.52;64251.50;5063494;28;20200;-77
2023/08/15 01:25:00;;;;;;;4.72;4.10;;;;;;;21.63;55.50;64241.53;5064829;28;20244;-79
2023/08/15 01:27:27;;;;;;;4.20;3.90;;;;;;;21.68;55.55;64238.97;5067539;28;20232;-77
2023/08/15 01:29:55;;;;;;;4.57;4.18;;;;;;;21.66;55.52;64242.06;5072012;28;20468;-79
2023/08/15 01:32:28;;;;;;;4.65;4.07;;;;;;;21.67;56.79;64245.19;5082826;28;20199;-80
2023/08/15 01:35:03;;;;;;;3.95;3.65;;;;;;;21.73;56.05;64248.88;5069436;28;20243;-78
2023/08/15 01:37:31;;;;;;;5.10;3.22;;;;;;;21.75;55.67;64253.56;5069746;28;20220;-80
2023/08/15 01:40:04;;;;;;;5.18;3.90;;;;;;;21.68;56.09;64246.25;5067189;28;20220;-79
2023/08/15 01:42:33;;;;;;;4.07;3.67;;;;;;;21.66;56.35;64241.56;5072642;28;20200;-79
2023/08/15 01:45:02;;;;;;;3.70;3.38;;;;;;;21.66;56.47;64241.56;5069583;28;20231;-78
2023/08/15 01:47:31;;;;;;;4.47;3.78;;;;;;;21.62;57.02;64240.47;5067418;28;20251;-78
2023/08/15 01:49:58;;;;;;;4.13;3.67;;;;;;;21.66;56.78;64244.16;5068606;28;20221;-78
2023/08/15 01:52:25;;;;;;;4.38;3.63;;;;;;;21.65;56.79;64243.09;5076466;28;20208;-78
2023/08/15 01:54:52;;;;;;;4.15;3.40;;;;;;;21.41;58.10;64215.44;5073379;28;20227;-78
2023/08/15 01:57:21;;;;;;;3.88;3.65;;;;;;;21.35;58.21;64211.75;5066953;28;20208;-79
2023/08/15 01:59:48;;;;;;;3.65;3.25;;;;;;;21.22;59.28;64198.72;5068988;28;20232;-79
2023/08/15 02:02:16;;;;;;;3.90;3.60;;;;;;;21.23;59.12;64199.22;5069158;28;20196;-78
2023/08/15 02:04:43;;;;;;;3.97;3.72;;;;;;;21.23;58.68;64199.75;5068920;28;20608;-78
2023/08/15 02:07:13;;;;;;;3.60;3.40;;;;;;;21.20;58.68;64194.03;5065129;28;20224;-78
2023/08/15 02:09:40;;;;;;;4.28;3.88;;;;;;;21.20;59.47;64196.09;5065838;28;20231;-78
2023/08/15 02:12:09;;;;;;;4.38;4.07;;;;;;;21.25;59.38;64201.84;5067239;28;20200;-77
2023/08/15 02:14:37;;;;;;;4.35;3.95;;;;;;;21.20;59.15;64196.09;5066980;28;20276;-78
2023/08/15 02:17:04;;;;;;;5.35;4.10;;;;;;;21.31;59.03;64213.28;5080319;28;20192;-77
2023/08/15 02:19:31;;;;;;;5.30;4.18;;;;;;;21.36;59.81;64210.22;5071205;28;20217;-78
2023/08/15 02:21:58;;;;;;;3.75;3.55;;;;;;;21.38;59.63;64214.91;5069893;28;20396;-78
2023/08/15 02:24:25;;;;;;;3.50;3.20;;;;;;;21.43;59.27;64223.22;5066533;28;20228;-78
2023/08/15 02:26:53;;;;;;;3.85;3.45;;;;;;;21.40;60.04;64209.19;5077948;28;20235;-77
2023/08/15 02:29:20;;;;;;;3.83;3.53;;;;;;;21.44;60.04;64221.69;5069383;28;20240;-78
2023/08/15 02:31:49;;;;;;;4.07;3.78;;;;;;;21.43;60.12;64217.53;5067119;28;20193;-78
2023/08/15 02:34:18;;;;;;;4.55;3.55;;;;;;;21.43;60.38;64220.13;5065781;28;20220;-79
2023/08/15 02:36:47;;;;;;;3.80;3.60;;;;;;;21.42;60.52;64221.66;5066631;28;20250;-79
2023/08/15 02:39:15;;;;;;;3.70;3.42;;;;;;;21.46;60.57;64220.66;5067650;28;20239;-78
2023/08/15 02:41:43;;;;;;;5.13;3.75;;;;;;;21.46;60.85;64223.78;5075403;28;20310;-77
2023/08/15 02:44:13;;;;;;;4.32;4.03;;;;;;;21.40;60.41;64222.16;5074906;28;20232;-79
2023/08/15 02:46:40;;;;;;;4.40;4.03;;;;;;;21.25;59.39;64196.13;5078542;28;20265;-77
2023/08/15 02:49:10;;;;;;;3.70;3.50;;;;;;;21.34;59.88;64210.72;5076459;28;20232;-78
2023/08/15 02:51:37;;;;;;;3.78;3.58;;;;;;;21.33;59.60;64205.00;5072042;28;20254;-79
2023/08/15 02:54:05;;;;;;;3.90;3.60;;;;;;;21.30;59.24;64206.53;5072338;28;20235;-77
2023/08/15 02:56:32;;;;;;;3.80;3.60;;;;;;;21.09;61.84;64184.63;5076947;28;20222;-79
2023/08/15 02:58:59;;;;;;;3.92;3.72;;;;;;;21.06;62.15;64184.06;5068206;28;20486;-79
2023/08/15 03:01:26;;;;;;;4.13;3.80;;;;;;;21.10;60.88;64188.78;5083190;28;20213;-80
2023/08/15 03:03:54;;;;;;;6.70;4.25;;;;;;;21.14;57.40;64189.84;5068011;28;20271;-77
2023/08/15 03:06:22;;;;;;;3.63;3.42;;;;;;;21.11;59.08;64189.81;5078143;28;20217;-79
2023/08/15 03:08:49;;;;;;;4.82;3.95;;;;;;;21.13;58.40;64184.13;5062165;28;20259;-79
2023/08/15 03:11:17;;;;;;;3.85;3.55;;;;;;;21.01;58.64;64174.19;5072491;28;20208;-78
2023/08/15 03:13:44;;;;;;;5.25;3.92;;;;;;;21.15;60.87;64193.47;5069089;28;20220;-79
2023/08/15 03:16:11;;;;;;;4.22;3.80;;;;;;;21.20;60.70;64196.63;5069394;28;20219;-79
2023/08/15 03:18:38;;;;;;;5.97;4.65;;;;;;;21.22;61.46;64196.13;5066478;28;20224;-79
2023/08/15 03:21:08;;;;;;;4.40;4.00;;;;;;;21.31;60.21;64207.59;5067255;28;20271;-78
2023/08/15 03:23:37;;;;;;;4.32;3.95;;;;;;;21.34;60.44;64210.72;5073906;28;20221;-79
2023/08/15 03:26:05;;;;;;;4.20;3.83;;;;;;;21.36;59.39;64215.94;5066859;28;20204;-79
2023/08/15 03:28:34;;;;;;;4.93;4.10;;;;;;;21.41;59.61;64218.03;5069674;28;20236;-78
2023/08/15 03:31:04;;;;;;;4.60;4.30;;;;;;;21.44;61.16;64221.69;5067810;28;20197;-78
2023/08/15 03:33:32;;;;;;;6.47;4.30;;;;;;;21.37;62.62;64216.44;5067840;28;20553;-78
2023/08/15 03:35:59;;;;;;;4.80;4.45;;;;;;;21.35;61.94;64209.16;5076538;28;20224;-78
2023/08/15 03:38:26;;;;;;;5.00;4.03;;;;;;;21.44;60.71;64221.69;5076546;28;20458;-78
2023/08/15 03:41:03;;;;;;;4.15;3.65;;;;;;;21.58;60.28;64236.31;5073168;28;20234;-78
2023/08/15 03:43:31;;;;;;;3.90;3.67;;;;;;;21.62;59.00;64239.97;5071350;28;20306;-79
2023/08/15 03:46:02;;;;;;;5.03;3.50;;;;;;;21.59;57.45;64234.75;5068179;28;20268;-79
2023/08/15 03:48:30;;;;;;;4.25;3.88;;;;;;;21.65;56.54;64241.03;5066277;28;20380;-78
2023/08/15 03:50:59;;;;;;;5.30;3.47;;;;;;;21.60;56.75;64237.88;5069406;28;20196;-78
2023/08/15 03:53:26;;;;;;;4.28;4.00;;;;;;;21.65;57.01;64241.03;5064609;28;20278;-79
2023/08/15 03:55:54;;;;;;;6.05;3.70;;;;;;;21.71;56.87;64249.91;5075769;28;20204;-77
2023/08/15 03:58:24;;;;;;;4.93;3.90;;;;;;;21.74;56.78;64249.91;5066406;28;20229;-79
2023/08/15 04:00:51;;;;;;;5.30;3.95;;;;;;;21.81;56.47;64256.72;5062376;28;20210;-78
2023/08/15 04:03:18;;;;;;;3.95;3.65;;;;;;;21.81;56.05;64257.25;5065256;28;20232;-78
2023/08/15 04:05:46;;;;;;;4.18;3.88;;;;;;;21.88;56.88;64267.16;5075732;28;20249;-79
2023/08/15 04:08:14;;;;;;;4.00;3.63;;;;;;;21.89;57.98;64265.09;5069668;28;20232;-78
2023/08/15 04:10:42;;;;;;;4.38;3.05;;;;;;;21.86;58.44;64261.94;5063920;28;20393;-79
2023/08/15 04:13:10;;;;;;;4.88;3.00;;;;;;;21.88;58.48;64264.56;5076667;28;20225;-79
2023/08/15 04:15:39;;;;;;;3.80;3.40;;;;;;;21.92;59.00;64268.75;5063692;28;20197;-78
2023/08/15 04:18:07;;;;;;;3.80;3.50;;;;;;;21.93;58.68;64269.28;5063952;28;20220;-80
2023/08/15 04:20:37;;;;;;;4.03;3.65;;;;;;;21.86;59.36;64269.72;5060643;28;20203;-79
2023/08/15 04:23:04;;;;;;;3.72;3.42;;;;;;;21.91;58.45;64267.19;5057901;28;20216;-78
2023/08/15 04:25:33;;;;;;;4.93;3.50;;;;;;;21.94;58.21;64273.44;5068200;28;20215;-78
2023/08/15 04:28:01;;;;;;;3.97;3.67;;;;;;;22.03;57.61;64287.50;5064345;28;20543;-80
2023/08/15 04:30:29;;;;;;;4.13;3.67;;;;;;;22.07;57.17;64283.91;5064181;28;20211;-78
2023/08/15 04:32:59;;;;;;;4.25;3.95;;;;;;;22.04;56.49;64281.28;5074255;28;20208;-78
2023/08/15 04:35:26;;;;;;;4.13;3.90;;;;;;;22.13;55.63;64287.56;5064462;28;20522;-78
2023/08/15 04:37:53;;;;;;;6.63;4.43;;;;;;;22.11;55.91;64290.66;5067516;28;20207;-79
2023/08/15 04:40:31;;;;;;;4.25;3.85;;;;;;;22.15;55.41;64289.66;5070907;28;20276;-79
2023/08/15 04:42:58;;;;;;;4.85;4.20;;;;;;;21.89;57.44;64267.69;5072842;28;20211;-78
2023/08/15 04:45:26;;;;;;;4.80;4.18;;;;;;;21.63;60.06;64241.00;5064863;28;20238;-79
2023/08/15 04:47:53;;;;;;;5.07;4.57;;;;;;;21.72;59.10;64250.41;5064881;28;20205;-80
2023/08/15 04:50:22;;;;;;;4.57;4.28;;;;;;;21.83;57.85;64261.41;5062671;28;20243;-79
2023/08/15 04:52:49;;;;;;;5.50;4.50;;;;;;;21.75;58.36;64254.09;5064912;28;20257;-78
2023/08/15 04:55:20;;;;;;;4.35;3.95;;;;;;;21.74;60.35;64247.31;5063152;28;20473;-79
2023/08/15 04:57:47;;;;;;;4.45;4.05;;;;;;;21.80;61.43;64256.19;5073655;28;20305;-78
2023/08/15 05:00:19;;;;;;;4.85;4.45;;;;;;;21.85;62.53;64263.50;5071106;28;20517;-79
2023/08/15 05:02:46;;;;;;;4.57;4.00;;;;;;;21.82;62.22;64258.28;5070604;28;20207;-77
2023/08/15 05:05:13;;;;;;;5.60;4.30;;;;;;;21.89;61.76;64262.50;5070314;28;20201;-79
2023/08/15 05:07:42;;;;;;;4.38;3.97;;;;;;;21.87;61.35;64263.00;5068557;28;20457;-79
2023/08/15 05:10:10;;;;;;;5.25;4.05;;;;;;;21.73;61.36;64249.41;5069018;28;20292;-79
2023/08/15 05:12:37;;;;;;;4.15;3.75;;;;;;;21.75;61.92;64253.56;5065518;28;20577;-78
2023/08/15 05:15:07;;;;;;;4.28;3.97;;;;;;;21.72;60.98;64253.53;5065883;28;20205;-80
2023/08/15 05:17:35;;;;;;;4.45;4.15;;;;;;;21.72;59.71;64250.41;5065539;28;20211;-78
2023/08/15 05:20:03;;;;;;;6.13;3.90;;;;;;;21.70;60.77;64248.84;5070697;28;20228;-78
2023/08/15 05:22:30;;;;;;;4.00;3.70;;;;;;;21.69;59.63;64244.69;5074008;28;20234;-78
2023/08/15 05:24:59;;;;;;;4.70;4.25;;;;;;;21.66;61.07;64244.66;5076778;28;20306;-79
2023/08/15 05:27:27;;;;;;;4.35;3.95;;;;;;;21.68;60.97;64241.06;5065647;28;20242;-79
2023/08/15 05:29:54;;;;;;;4.25;3.95;;;;;;;21.69;60.84;64242.63;5069996;28;20296;-79
2023/08/15 05:32:21;;;;;;;4.57;4.07;;;;;;;21.81;60.12;64254.66;5077126;28;20268;-77
2023/08/15 05:34:48;;;;;;;4.20;3.90;;;;;;;21.75;60.89;64251.50;5079209;28;20233;-79
2023/08/15 05:37:16;;;;;;;4.43;3.97;;;;;;;21.75;60.96;64253.56;5069678;28;20476;-77
2023/08/15 05:39:43;;;;;;;4.38;3.97;;;;;;;21.82;61.11;64262.94;5080023;28;20223;-79
2023/08/15 05:42:17;;;;;;;5.13;4.63;;;;;;;21.71;60.60;64249.38;5069758;28;20219;-78
2023/08/15 05:44:45;;;;;;;3.83;3.60;;;;;;;21.76;61.91;64254.59;5055632;28;20246;-80
2023/08/15 05:47:12;;;;;;;4.30;3.90;;;;;;;21.65;61.02;64243.63;5055572;28;20201;-83
2023/08/15 05:49:41;;;;;;;3.90;3.60;;;;;;;21.82;60.83;64265.53;5066749;28;20236;-80
2023/08/15 05:52:11;;;;;;;4.47;4.10;;;;;;;21.76;60.75;64252.53;5067640;28;20255;-79
2023/08/15 05:54:38;;;;;;;4.35;4.05;;;;;;;21.81;60.17;64267.09;5065310;28;20235;-78
2023/08/15 05:57:05;;;;;;;4.00;3.80;;;;;;;21.83;59.94;64259.34;5067728;28;20379;-78
2023/08/15 05:59:33;;;;;;;4.60;4.30;;;;;;;21.77;61.59;64255.66;5088558;28;20223;-78
2023/08/15 06:02:01;;;;;;;5.00;4.50;;;;;;;21.86;60.95;64265.06;5072301;28;20214;-79
2023/08/15 06:04:28;;;;;;;4.55;4.10;;;;;;;21.84;60.81;64257.78;5066324;28;20221;-80
2023/08/15 06:06:55;;;;;;;4.40;3.97;;;;;;;21.79;61.11;64253.09;5065982;28;20501;-80
2023/08/15 06:09:22;;;;;;;4.53;4.10;;;;;;;21.82;60.68;64257.75;5064283;28;20232;-79
2023/08/15 06:11:50;;;;;;;6.95;3.75;;;;;;;21.89;61.07;64262.50;5065603;28;20197;-80
2023/08/15 06:14:19;;;;;;;6.00;4.47;;;;;;;21.78;61.13;64257.22;5065924;28;20231;-81
2023/08/15 06:16:48;;;;;;;5.57;3.75;;;;;;;21.82;60.75;64258.28;5069255;28;20235;-79
2023/08/15 06:19:16;;;;;;;6.63;4.22;;;;;;;21.86;60.49;64262.47;5063544;28;20236;-79
2023/08/15 06:21:43;;;;;;;4.30;4.00;;;;;;;21.91;60.86;64269.78;5067844;28;20200;-79
2023/08/15 06:24:11;;;;;;;4.55;4.25;;;;;;;21.94;61.38;64275.50;5077677;28;20469;-79
2023/08/15 06:26:38;;;;;;;5.00;4.40;;;;;;;21.92;62.67;64271.34;5065931;28;20254;-79
2023/08/15 06:29:08;;;;;;;5.10;4.28;;;;;;;21.93;62.16;64274.44;5066051;28;20270;-77
2023/08/15 06:31:36;;;;;;;4.35;3.85;;;;;;;21.97;61.81;64270.84;5086435;28;20227;-79
2023/08/15 06:34:05;;;;;;;4.63;4.32;;;;;;;21.96;62.98;64269.81;5068641;28;20291;-79
2023/08/15 06:36:32;;;;;;;4.72;4.32;;;;;;;21.96;62.94;64275.00;5066117;28;20393;-78
2023/08/15 06:39:00;;;;;;;5.10;4.60;;;;;;;22.00;64.20;64276.59;5079718;28;20589;-78
2023/08/15 06:41:27;;;;;;;4.28;3.83;;;;;;;21.93;64.36;64269.28;5067536;28;20235;-78
2023/08/15 06:43:54;;;;;;;8.50;4.07;;;;;;;22.06;64.94;64285.97;5071185;28;20509;-79
2023/08/15 06:46:22;;;;;;;8.52;4.13;;;;;;;22.12;65.47;64289.66;5082260;28;20228;-78
2023/08/15 06:48:49;;;;;;;6.72;4.10;;;;;;;22.13;65.35;64292.75;5067545;28;20474;-79
2023/08/15 06:51:18;;;;;;;4.47;4.10;;;;;;;22.09;67.04;64289.09;5078493;28;20196;-80
2023/08/15 06:53:50;;;;;;;5.78;4.78;;;;;;;22.11;67.23;64290.66;5063895;28;20235;-79
2023/08/15 06:56:17;;;;;;;5.22;4.35;;;;;;;22.11;68.19;64291.19;5069270;28;20206;-80
2023/08/15 06:58:44;;;;;;;7.72;5.55;;;;;;;22.16;68.77;64293.81;5079906;28;20228;-78
2023/08/15 07:01:12;;;;;;;5.18;4.68;;;;;;;22.20;69.23;64303.19;5068949;28;20211;-80
2023/08/15 07:03:39;;;;;;;5.53;4.57;;;;;;;22.21;70.34;64306.31;5068686;28;20236;-81
2023/08/15 07:06:06;;;;;;;5.50;4.18;;;;;;;22.23;69.08;64300.59;5069917;28;20204;-81
2023/08/15 07:08:36;;;;;;;4.40;4.10;;;;;;;22.18;69.19;64300.56;5065726;28;20307;-81
2023/08/15 07:11:03;;;;;;;4.50;4.20;;;;;;;22.08;70.04;64287.53;5073413;28;20257;-81
2023/08/15 07:13:30;;;;;;;4.68;4.20;;;;;;;22.24;69.89;64304.78;5078305;28;20229;-80
2023/08/15 07:15:58;;;;;;;5.82;4.60;;;;;;;22.26;70.54;64308.94;5070258;28;20203;-79
2023/08/15 07:18:25;;;;;;;4.45;4.10;;;;;;;22.28;70.22;64308.97;5069812;28;20235;-83
2023/08/15 07:20:53;;;;;;;4.28;4.03;;;;;;;22.31;71.18;64312.09;5082202;28;20205;-80
2023/08/15 07:23:20;;;;;;;5.18;4.65;;;;;;;22.37;71.08;64320.97;5072386;28;20259;-81
2023/08/15 07:25:48;;;;;;;5.65;4.45;;;;;;;22.50;71.49;64328.84;5066956;28;20208;-81
2023/08/15 07:28:16;;;;;;;5.32;4.90;;;;;;;22.56;71.01;64338.25;5073095;28;20225;-82
2023/08/15 07:30:45;;;;;;;4.50;4.20;;;;;;;22.34;70.74;64317.31;5066090;28;20288;-79
2023/08/15 07:33:12;;;;;;;5.50;5.00;;;;;;;22.12;72.38;64294.31;5063379;28;20239;-78
2023/08/15 07:35:41;;;;;;;6.57;4.38;;;;;;;22.28;73.03;64305.84;5065088;28;20259;-79
2023/08/15 07:38:08;;;;;;;4.57;4.20;;;;;;;22.31;72.15;64309.50;5068295;28;20223;-79
2023/08/15 07:40:36;;;;;;;5.43;4.50;;;;;;;22.20;70.88;64300.59;5062683;28;20201;-79
2023/08/15 07:43:04;;;;;;;4.72;4.32;;;;;;;22.32;70.93;64310.03;5064051;28;20256;-79
2023/08/15 07:45:31;;;;;;;6.22;4.80;;;;;;;22.22;72.88;64305.28;5066157;28;20204;-79
2023/08/15 07:47:58;;;;;;;6.05;4.63;;;;;;;22.39;72.30;64317.88;5066323;28;20227;-79
2023/08/15 07:50:29;;;;;;;8.10;4.53;;;;;;;22.35;72.66;64313.16;5066114;28;20228;-80
2023/08/15 07:52:58;;;;;;;6.13;4.90;;;;;;;22.54;71.80;64335.63;5069441;28;20197;-79
2023/08/15 07:55:25;;;;;;;5.28;4.63;;;;;;;22.37;71.70;64317.84;5071983;28;20255;-79
2023/08/15 07:57:53;;;;;;;5.10;4.70;;;;;;;22.49;72.24;64328.31;5068165;28;20251;-83
2023/08/15 08:00:22;;;;;;;5.38;4.97;;;;;;;22.61;71.71;64343.47;5064836;28;20208;-80
2023/08/15 08:02:49;;;;;;;6.15;4.68;;;;;;;22.45;71.73;64323.63;5061330;28;20526;-79
2023/08/15 08:05:17;;;;;;;4.80;4.50;;;;;;;22.34;71.49;64309.53;5066181;28;20201;-79
2023/08/15 08:07:46;;;;;;;5.63;4.85;;;;;;;22.45;72.39;64324.13;5067566;28;20242;-78
2023/08/15 08:10:15;;;;;;;6.20;4.85;;;;;;;22.31;70.56;64312.09;5065722;28;20228;-79
2023/08/15 08:12:42;;;;;;;6.97;5.25;;;;;;;22.18;72.45;64298.50;5069166;28;20204;-79
2023/08/15 08:15:10;;;;;;;5.30;4.68;;;;;;;22.46;71.99;64324.66;5066958;28;20203;-79
2023/08/15 08:17:39;;;;;;;7.68;4.88;;;;;;;22.50;72.15;64329.34;5062410;28;20205;-80
2023/08/15 08:20:12;;;;;;;5.45;4.95;;;;;;;22.68;72.08;64350.28;5057723;28;20257;-79
2023/08/15 08:22:39;;;;;;;5.35;4.97;;;;;;;22.52;70.72;64330.94;5061186;28;20446;-77
2023/08/15 08:25:16;;;;;;;6.03;5.53;;;;;;;22.47;70.14;64325.69;5063570;28;20539;-80
2023/08/15 08:27:44;;;;;;;7.03;5.22;;;;;;;22.39;71.22;64317.34;5072781;28;20208;-79
2023/08/15 08:30:12;;;;;;;5.22;4.85;;;;;;;22.36;71.16;64319.41;5067620;28;20282;-79
2023/08/15 08:32:41;;;;;;;8.15;5.32;;;;;;;22.45;71.66;64326.22;5072037;28;20216;-78
2023/08/15 08:35:10;;;;;;;6.93;5.20;;;;;;;22.60;71.53;64342.44;5068851;28;20189;-79
2023/08/15 08:37:37;;;;;;;6.07;5.30;;;;;;;22.53;69.25;64335.09;5065150;28;20196;-79
2023/08/15 08:40:05;;;;;;;7.90;5.18;;;;;;;22.65;68.97;64345.06;5065334;28;20428;-78
2023/08/15 08:42:32;;;;;;;6.05;5.53;;;;;;;22.71;69.45;64350.81;5070314;28;20473;-78
2023/08/15 08:45:00;;;;;;;6.32;4.95;;;;;;;22.80;67.77;64360.22;5077363;28;20374;-78
2023/08/15 08:47:31;;;;;;;7.38;5.00;;;;;;;22.84;67.73;64364.41;5064883;28;20224;-78
2023/08/15 08:50:01;;;;;;;6.10;5.60;;;;;;;22.79;69.17;64359.72;5064744;28;20235;-79
2023/08/15 08:52:28;;;;;;;6.78;5.32;;;;;;;23.07;69.00;64391.06;5066775;28;20208;-80
2023/08/15 08:54:55;;;;;;;6.78;6.00;;;;;;;23.25;66.55;64409.88;5059899;28;20243;-79
2023/08/15 08:57:24;;;;;;;5.38;4.97;;;;;;;22.98;67.28;64381.66;5066141;28;20204;-80
2023/08/15 08:59:54;;;;;;;7.53;5.55;;;;;;;23.24;66.39;64405.72;5067474;28;20224;-79
2023/08/15 09:02:23;;;;;;;10.15;5.18;;;;;;;23.48;64.32;64431.38;5065594;28;20258;-79
2023/08/15 09:04:50;;;;;;;6.00;5.50;;;;;;;23.37;64.96;64414.66;5073270;28;20213;-79
2023/08/15 09:07:19;;;;;;;7.47;5.38;;;;;;;23.18;65.34;64399.97;5066623;28;20577;-78
2023/08/15 09:09:46;;;;;;;8.70;5.32;;;;;;;22.65;69.55;64344.53;5064929;28;20232;-79
2023/08/15 09:12:32;;;;;;;6.10;5.50;;;;;;;22.56;71.79;64335.66;5062241;28;20203;-79
2023/08/15 09:14:59;;;;;;;6.15;5.55;;;;;;;22.44;74.72;64325.69;5066173;28;20299;-79
2023/08/15 09:17:26;;;;;;;7.85;5.90;;;;;;;22.49;74.96;64330.38;5067017;28;20200;-79
2023/08/15 09:19:54;;;;;;;12.43;6.50;;;;;;;22.39;76.47;64319.94;5069210;28;20222;-79
2023/08/15 09:22:26;;;;;;;7.80;5.85;;;;;;;22.45;74.54;64323.63;5065277;28;20228;-80
2023/08/15 09:24:53;;;;;;;9.52;6.60;;;;;;;22.29;77.01;64309.50;5078661;28;20224;-81
2023/08/15 09:27:20;;;;;;;6.55;6.05;;;;;;;22.15;76.93;64297.44;5070403;28;20203;-78
2023/08/15 09:29:47;;;;;;;6.60;6.00;;;;;;;22.12;78.51;64289.66;5070795;28;20236;-80
2023/08/15 09:32:14;;;;;;;9.07;6.03;;;;;;;22.12;82.61;64287.06;5062478;28;20493;-79
2023/08/15 09:34:41;;;;;;;9.23;6.28;;;;;;;21.93;83.12;64269.28;5064967;28;20224;-79
2023/08/15 09:37:09;;;;;;;6.28;5.78;;;;;;;21.99;82.18;64278.13;5077374;28;20517;-80
2023/08/15 09:39:39;;;;;;;8.15;6.38;;;;;;;22.07;82.74;64283.91;5065970;28;20233;-78
2023/08/15 09:42:06;;;;;;;8.10;6.22;;;;;;;22.26;83.90;64306.88;5065541;28;20406;-80
2023/08/15 09:44:37;;;;;;;9.27;6.47;;;;;;;22.55;81.72;64331.50;5063922;28;20216;-79
2023/08/15 09:47:06;;;;;;;10.25;6.25;;;;;;;22.74;81.13;64356.56;5074322;28;20215;-79
2023/08/15 09:49:34;;;;;;;8.40;6.20;;;;;;;22.87;79.82;64367.53;5064112;28;20220;-79
2023/08/15 09:52:00;;;;;;;5.93;5.53;;;;;;;22.93;79.38;64374.34;5069102;28;20204;-77
2023/08/15 09:54:31;;;;;;;6.45;5.95;;;;;;;22.83;78.17;64363.88;5070061;28;20585;-79
2023/08/15 09:56:59;;;;;;;6.90;6.22;;;;;;;22.91;78.49;64369.13;5072289;28;20224;-79
2023/08/15 09:59:27;;;;;;;6.68;5.78;;;;;;;22.97;80.07;64383.19;5078582;28;20224;-81
2023/08/15 10:01:56;;;;;;;8.80;6.18;;;;;;;22.91;78.06;64371.72;5074407;28;20197;-80
2023/08/15 10:04:25;;;;;;;6.75;6.13;;;;;;;22.99;77.71;64379.59;5069494;28;20274;-79
2023/08/15 10:06:53;;;;;;;6.43;5.82;;;;;;;23.13;78.12;64396.81;5075246;28;20472;-81
2023/08/15 10:09:20;;;;;;;10.07;6.05;;;;;;;23.14;75.86;64397.88;5074567;28;20217;-80
2023/08/15 10:11:47;;;;;;;11.68;5.95;;;;;;;22.92;75.47;64375.38;5081416;28;20285;-80
2023/08/15 10:14:18;;;;;;;7.22;6.20;;;;;;;22.68;77.77;64347.69;5067657;28;20540;-79
2023/08/15 10:16:46;;;;;;;7.90;6.68;;;;;;;22.42;79.59;64323.06;5072487;28;20196;-81
2023/08/15 10:19:18;;;;;;;10.52;6.70;;;;;;;22.50;77.94;64329.34;5080128;28;20231;-80
2023/08/15 10:21:50;;;;;;;7.20;6.38;;;;;;;22.48;79.83;64329.88;5069278;28;20533;-79
2023/08/15 10:24:17;;;;;;;7.28;6.25;;;;;;;22.57;78.83;64338.78;5072283;28;20228;-80
2023/08/15 10:26:44;;;;;;;7.57;6.63;;;;;;;22.59;78.68;64336.19;5067916;28;20506;-80
2023/08/15 10:29:11;;;;;;;7.95;6.15;;;;;;;22.65;78.14;64347.13;5067140;28;20223;-82
2023/08/15 10:31:41;;;;;;;6.63;6.13;;;;;;;22.75;77.55;64357.59;5078216;28;20228;-80
2023/08/15 10:34:10;;;;;;;6.40;5.90;;;;;;;22.88;76.03;64371.72;5079196;28;20219;-80
2023/08/15 10:36:37;;;;;;;6.80;6.10;;;;;;;23.04;74.54;64382.72;5071042;28;20399;-81
2023/08/15 10:39:07;;;;;;;7.85;5.95;;;;;;;23.17;72.83;64401.53;5071123;28;20216;-80
2023/08/15 10:41:35;;;;;;;8.85;5.57;;;;;;;23.08;73.25;64391.56;5065888;28;20212;-80
2023/08/15 10:44:06;;;;;;;6.72;6.13;;;;;;;23.18;72.51;64399.97;5080589;28;20228;-81
2023/08/15 10:46:34;;;;;;;6.40;5.80;;;;;;;22.99;72.44;64377.50;5067130;28;20224;-79
2023/08/15 10:49:07;;;;;;;7.43;6.72;;;;;;;22.99;72.79;64382.69;5072537;28;20214;-80
2023/08/15 10:51:36;;;;;;;7.00;6.35;;;;;;;23.05;72.32;64385.84;5072164;28;20248;-79
2023/08/15 10:54:06;;;;;;;6.80;5.25;;;;;;;22.87;71.81;64367.53;5070902;28;20275;-80
2023/08/15 10:56:34;;;;;;;6.55;5.97;;;;;;;22.76;72.61;64353.47;5070225;28;20208;-79
2023/08/15 10:59:07;;;;;;;6.80;5.97;;;;;;;22.62;73.64;64344.50;5066985;28;20279;-80
2023/08/15 11:01:38;;;;;;;6.00;5.50;;;;;;;22.95;71.05;64378.53;5069205;28;20201;-79
2023/08/15 11:04:09;;;;;;;7.25;6.57;;;;;;;23.30;67.89;64412.53;5067761;28;20223;-78
2023/08/15 11:06:42;;;;;;;9.23;5.70;;;;;;;23.50;66.87;64433.47;5071721;28;20203;-79
2023/08/15 11:09:10;;;;;;;6.65;6.05;;;;;;;23.77;63.66;64464.31;5068219;28;20216;-81
2023/08/15 11:11:38;;;;;;;6.45;5.78;;;;;;;23.89;63.78;64479.47;5072042;28;20350;-79
2023/08/15 11:14:17;;;;;;;6.15;5.57;;;;;;;24.20;62.24;64508.81;5081300;28;20209;-80
2023/08/15 11:16:44;;;;;;;6.85;6.03;;;;;;;24.08;59.43;64493.66;5070618;28;20209;-79
2023/08/15 11:19:15;;;;;;;8.18;5.88;;;;;;;24.09;59.55;64494.19;5069186;28;20230;-80
2023/08/15 11:21:42;;;;;;;5.93;4.93;;;;;;;23.89;59.52;64476.34;5079991;28;20199;-80
2023/08/15 11:24:11;;;;;;;5.70;5.25;;;;;;;23.97;58.64;64480.03;5068015;28;20255;-81
2023/08/15 11:26:38;;;;;;;8.02;5.50;;;;;;;24.41;57.58;64525.59;5068638;28;20236;-79
2023/08/15 11:29:05;;;;;;;5.57;4.95;;;;;;;24.28;57.44;64519.78;5075905;28;20256;-78
2023/08/15 11:31:33;;;;;;;7.82;5.32;;;;;;;24.26;58.29;64515.09;5065160;28;20672;-80
2023/08/15 11:34:00;;;;;;;8.05;5.45;;;;;;;24.15;58.31;64500.44;5067285;28;20233;-78
2023/08/15 11:36:28;;;;;;;6.30;5.63;;;;;;;24.00;58.21;64483.19;5061691;28;20405;-79
2023/08/15 11:38:56;;;;;;;6.18;5.43;;;;;;;23.78;58.21;64467.97;5057897;28;20275;-78